map of PGL home
PGL - Airport
Location
City:  Pascagoula, Mississippi, United States
Name:Trent Lott International Airport
ICAO:KPQL
IATA:PGL
FAA LID:PQL

Details
Type:Airport (Airfield)
Use:Public/Civil
Latitude:3027'46"N (30.462781)
Longitude:8831'45"W (-88.529227)
Datum:WGS 1984
Elevation:17 ft (5 m)
Variation:2.00W (WMM2015v2 magnetic declination)
-0.09 annual change
Runways:1
Longest:6500 × 100 ft (1981 × 30.5 m), paved

Time
Time Zone:UTC-6 (DST-5)
Local Time:

Weather
METAR:KPQL 041353Z 13004KT 10SM BKN035 OVC080 17/16 A3004 RMK AO2 SLP173 T01720156

Related Locations
Nearby:
Farthest:CCK: 11128 mi / 17908 km
West Island (Pulau Panjang) [Cocos (Keeling) Islands], CC

Find:

   beyond  
but within

Other Information
Maps:
NOTAMs:
Links:
Sources:

  
  • flag of United States
  • flag of Mississippi
  

Airport Diagram

Airport diagram for PGL

Airport diagram PDF from FAA

Sectional Chart

Flight Planning
at skyvector.com

Satellite Image

Google Maps Satellite view

 

Copyright © 2004-2019 Karl L. Swartz. All rights reserved.
The Great Circle Mapper name and logo are trademarks of the Great Circle Mapper.
All other trademarks mentioned herein belong to their respective owners.
Please see credits for attibutions and further copyright information.

  Follow gcmap on Facebook Follow gcmap on Twitter GCmap on LinkedIn

hCard Microformat

Geo Microformat